Time;durP1;ratioP1;P1;durP2;ratioP2;P2;SDS_P1;SDS_P2;PMS_P1;PMS_P2;Temp;Humidity;BMP_temperature;BMP_pressure;BME280_temperature;BME280_humidity;BME280_pressure;Samples;Min_cycle;Max_cycle;Signal;HPM_P1;HPM_P2
2023/10/10 00:00:57;;;;;;;0.20;0.00;;;;;;;;;;4960002;28;20041;-79
2023/10/10 00:03:26;;;;;;;0.20;0.10;;;;;;;;;;4948935;28;20616;-79
2023/10/10 00:05:53;;;;;;;0.20;0.10;;;;;;;;;;4987343;28;20047;-79
2023/10/10 00:08:20;;;;;;;0.20;0.00;;;;;;;;;;4974936;28;20043;-78
2023/10/10 00:10:50;;;;;;;0.50;0.30;;;;;;;;;;4969136;28;20045;-78
2023/10/10 00:13:20;;;;;;;0.20;0.00;;;;;;;;;;4962733;28;20043;-78
2023/10/10 00:16:05;;;;;;;0.20;0.00;;;;;;;;;;4962464;28;20042;-79
2023/10/10 00:18:32;;;;;;;0.20;0.10;;;;;;;;;;4950668;28;20639;-79
2023/10/10 00:21:08;;;;;;;0.20;0.00;;;;;;;;;;4949301;28;20038;-78
2023/10/10 00:23:47;;;;;;;0.20;0.00;;;;;;;;;;4966762;28;20042;-78
2023/10/10 00:26:22;;;;;;;0.20;0.00;;;;;;;;;;4967793;28;20100;-78
2023/10/10 00:28:55;;;;;;;0.20;0.20;;;;;;;;;;4974324;28;20046;-78
2023/10/10 00:31:22;;;;;;;0.20;0.00;;;;;;;;;;4983462;28;20666;-78
2023/10/10 00:33:50;;;;;;;0.20;0.00;;;;;;;;;;4965981;28;22550;-78
2023/10/10 00:36:28;;;;;;;0.20;0.08;;;;;;;;;;4969030;28;22356;-78
2023/10/10 00:39:05;;;;;;;0.20;0.00;;;;;;;;;;4965940;28;20140;-78
2023/10/10 00:41:31;;;;;;;0.30;0.20;;;;;;;;;;4954834;28;20050;-78
2023/10/10 00:43:57;;;;;;;0.20;0.10;;;;;;;;;;4946284;28;20611;-78
2023/10/10 00:46:28;;;;;;;0.20;0.05;;;;;;;;;;4961657;28;20129;-79
2023/10/10 00:48:59;;;;;;;0.20;0.00;;;;;;;;;;4963924;28;20063;-79
2023/10/10 00:51:29;;;;;;;0.20;0.15;;;;;;;;;;4975898;28;20054;-78
2023/10/10 00:54:09;;;;;;;0.20;0.10;;;;;;;;;;4960983;28;20047;-77
2023/10/10 00:56:35;;;;;;;0.25;0.20;;;;;;;;;;4963032;28;20053;-79
2023/10/10 00:59:03;;;;;;;0.20;0.10;;;;;;;;;;4965946;28;20046;-79
2023/10/10 01:01:29;;;;;;;0.57;0.28;;;;;;;;;;4963800;28;20054;-78
2023/10/10 01:03:57;;;;;;;0.20;0.10;;;;;;;;;;4961587;28;20046;-78
2023/10/10 01:06:29;;;;;;;0.20;0.00;;;;;;;;;;4948514;28;20600;-78
2023/10/10 01:08:58;;;;;;;;;;;;;;;;;;4975060;28;20129;-78
2023/10/10 01:11:24;;;;;;;0.20;0.00;;;;;;;;;;4965535;28;20416;-77
2023/10/10 01:13:56;;;;;;;0.20;0.10;;;;;;;;;;4946182;28;20031;-78
2023/10/10 01:16:27;;;;;;;1.00;0.22;;;;;;;;;;4973784;28;20052;-78
2023/10/10 01:18:59;;;;;;;0.20;0.00;;;;;;;;;;4958191;28;20113;-78
2023/10/10 01:21:42;;;;;;;0.55;0.30;;;;;;;;;;4960839;28;20042;-78
2023/10/10 01:24:11;;;;;;;0.20;0.03;;;;;;;;;;4969542;28;20046;-78
2023/10/10 01:26:44;;;;;;;0.20;0.00;;;;;;;;;;4949311;28;20109;-78
2023/10/10 01:29:27;;;;;;;0.20;0.00;;;;;;;;;;4964157;28;20050;-77
2023/10/10 01:31:54;;;;;;;0.20;0.05;;;;;;;;;;4974529;28;20595;-78
2023/10/10 01:36:59;;;;;;;0.20;0.10;;;;;;;;;;4991954;28;20418;-78
2023/10/10 01:39:45;;;;;;;0.20;0.10;;;;;;;;;;4970680;28;20043;-79
2023/10/10 01:42:13;;;;;;;0.30;0.10;;;;;;;;;;4955263;28;20077;-79
2023/10/10 01:44:39;;;;;;;0.22;0.10;;;;;;;;;;4959850;28;20047;-79
2023/10/10 01:47:18;;;;;;;0.20;0.08;;;;;;;;;;4950783;28;20101;-78
2023/10/10 01:49:45;;;;;;;0.20;0.20;;;;;;;;;;4950103;28;20038;-79
2023/10/10 01:52:17;;;;;;;0.20;0.00;;;;;;;;;;4942110;28;20042;-79
2023/10/10 01:54:46;;;;;;;0.20;0.10;;;;;;;;;;4966310;28;20306;-78
2023/10/10 01:57:21;;;;;;;0.20;0.10;;;;;;;;;;4945337;28;20038;-78
2023/10/10 01:59:47;;;;;;;0.20;0.00;;;;;;;;;;4956650;28;20488;-79
2023/10/10 02:02:16;;;;;;;0.20;0.10;;;;;;;;;;4953015;28;20169;-79
2023/10/10 02:04:42;;;;;;;0.50;0.20;;;;;;;;;;4958114;28;20038;-79
2023/10/10 02:07:23;;;;;;;0.20;0.10;;;;;;;;;;4970971;28;20042;-78
2023/10/10 02:09:59;;;;;;;0.20;0.00;;;;;;;;;;4969625;28;20554;-78
2023/10/10 02:12:26;;;;;;;0.20;0.10;;;;;;;;;;4965057;28;20505;-79
2023/10/10 02:14:54;;;;;;;0.20;0.10;;;;;;;;;;4953340;28;20093;-78
2023/10/10 02:17:27;;;;;;;0.20;0.10;;;;;;;;;;4976181;28;20500;-79
2023/10/10 02:19:54;;;;;;;0.20;0.10;;;;;;;;;;4968605;28;20143;-78
2023/10/10 02:22:32;;;;;;;0.25;0.20;;;;;;;;;;4967714;28;20059;-79
2023/10/10 02:25:36;;;;;;;0.20;0.00;;;;;;;;;;4972077;28;20047;-79
2023/10/10 02:27:57;;;;;;;0.20;0.10;;;;;;;;;;4965329;28;20114;-78
2023/10/10 02:30:39;;;;;;;0.20;0.00;;;;;;;;;;4954955;28;20067;-78
2023/10/10 02:35:57;;;;;;;0.20;0.10;;;;;;;;;;4968191;28;20039;-78
2023/10/10 02:38:31;;;;;;;0.20;0.10;;;;;;;;;;4968423;28;20539;-78
2023/10/10 02:41:14;;;;;;;0.20;0.10;;;;;;;;;;4949957;28;20042;-77
2023/10/10 02:43:46;;;;;;;;;;;;;;;;;;4960078;28;20043;-79
2023/10/10 02:46:18;;;;;;;0.20;0.10;;;;;;;;;;4950137;28;19932;-79
2023/10/10 02:48:53;;;;;;;0.20;0.20;;;;;;;;;;4980163;28;20409;-78
2023/10/10 02:51:20;;;;;;;0.20;0.03;;;;;;;;;;4948256;28;20550;-78
2023/10/10 02:53:46;;;;;;;0.20;0.10;;;;;;;;;;4979686;28;20047;-78
2023/10/10 02:56:19;;;;;;;0.20;0.10;;;;;;;;;;4957702;28;20043;-79
2023/10/10 02:58:47;;;;;;;0.20;0.10;;;;;;;;;;4959238;28;20046;-78
2023/10/10 03:01:50;;;;;;;0.20;0.00;;;;;;;;;;4961958;28;20086;-78
2023/10/10 03:04:08;;;;;;;0.20;0.05;;;;;;;;;;4962097;28;20455;-78
2023/10/10 03:06:34;;;;;;;0.20;0.10;;;;;;;;;;4944093;28;20563;-78
2023/10/10 03:09:27;;;;;;;0.20;0.10;;;;;;;;;;4962014;28;20569;-77
2023/10/10 03:12:03;;;;;;;0.20;0.03;;;;;;;;;;4983394;28;20714;-78
2023/10/10 03:14:32;;;;;;;0.28;0.10;;;;;;;;;;4956002;28;22971;-78
2023/10/10 03:17:31;;;;;;;0.20;0.15;;;;;;;;;;4963557;28;21040;-79
2023/10/10 03:19:50;;;;;;;0.20;0.10;;;;;;;;;;4968519;28;20057;-78
2023/10/10 03:22:27;;;;;;;0.20;0.00;;;;;;;;;;4958026;28;20061;-77
2023/10/10 03:25:21;;;;;;;0.20;0.00;;;;;;;;;;4956636;28;20047;-78
2023/10/10 03:27:55;;;;;;;0.22;0.13;;;;;;;;;;4967207;28;20042;-79
2023/10/10 03:30:49;;;;;;;0.20;0.05;;;;;;;;;;4968022;28;20050;-79
2023/10/10 03:33:29;;;;;;;0.20;0.10;;;;;;;;;;4971330;28;20631;-79
2023/10/10 03:36:30;;;;;;;1.02;0.30;;;;;;;;;;4956883;28;20038;-78
2023/10/10 05:23:31;;;;;;;0.30;0.20;;;;;;;;;;5022186;28;20045;-81
2023/10/10 05:25:59;;;;;;;0.20;0.10;;;;;;;;;;5020326;28;20092;-81
2023/10/10 05:28:29;;;;;;;0.22;0.17;;;;;;;;;;5022017;28;20034;-81
2023/10/10 05:30:57;;;;;;;0.20;0.15;;;;;;;;;;4999744;28;20045;-83
2023/10/10 05:33:26;;;;;;;0.20;0.10;;;;;;;;;;5005167;28;20026;-81
2023/10/10 05:35:57;;;;;;;0.50;0.20;;;;;;;;;;5002886;28;20064;-82
2023/10/10 05:38:25;;;;;;;0.20;0.10;;;;;;;;;;5008028;28;20093;-81
2023/10/10 05:40:51;;;;;;;0.20;0.00;;;;;;;;;;5023470;28;20052;-81
2023/10/10 05:43:19;;;;;;;0.20;0.00;;;;;;;;;;5023510;28;20036;-81
2023/10/10 05:45:45;;;;;;;0.20;0.10;;;;;;;;;;5024801;28;20068;-81
2023/10/10 05:48:12;;;;;;;0.20;0.08;;;;;;;;;;5025752;28;20454;-81
2023/10/10 05:50:42;;;;;;;0.20;0.10;;;;;;;;;;5009733;28;20048;-81
2023/10/10 05:53:08;;;;;;;0.22;0.13;;;;;;;;;;5022172;28;20041;-81
2023/10/10 05:55:34;;;;;;;0.20;0.00;;;;;;;;;;5020688;28;20496;-81
2023/10/10 05:58:02;;;;;;;0.20;0.00;;;;;;;;;;5008009;28;20037;-82
2023/10/10 06:00:29;;;;;;;0.20;0.10;;;;;;;;;;5019146;28;20048;-80
2023/10/10 06:02:55;;;;;;;0.20;0.00;;;;;;;;;;5025270;28;20068;-81
2023/10/10 06:05:21;;;;;;;0.20;0.10;;;;;;;;;;5008528;28;20622;-81
2023/10/10 06:07:49;;;;;;;0.20;0.10;;;;;;;;;;5025609;28;20088;-81
2023/10/10 06:10:16;;;;;;;0.20;0.00;;;;;;;;;;5006656;28;20057;-82
2023/10/10 06:12:46;;;;;;;0.20;0.10;;;;;;;;;;5026160;28;20045;-81
2023/10/10 06:15:16;;;;;;;0.20;0.10;;;;;;;;;;5023027;28;20048;-81
2023/10/10 06:17:42;;;;;;;0.20;0.10;;;;;;;;;;5024962;28;20045;-81
2023/10/10 06:20:10;;;;;;;0.40;0.35;;;;;;;;;;5032173;28;20111;-81
2023/10/10 06:22:37;;;;;;;0.20;0.10;;;;;;;;;;5023519;28;20042;-81
2023/10/10 06:25:05;;;;;;;0.20;0.10;;;;;;;;;;5009718;28;20077;-78
2023/10/10 06:27:36;;;;;;;0.20;0.00;;;;;;;;;;5023233;28;20515;-83
2023/10/10 06:30:05;;;;;;;0.20;0.20;;;;;;;;;;5007554;28;20041;-82
2023/10/10 06:32:31;;;;;;;0.28;0.25;;;;;;;;;;5022710;28;20041;-81
2023/10/10 06:35:26;;;;;;;0.20;0.10;;;;;;;;;;5011474;28;20093;-81
2023/10/10 06:37:53;;;;;;;0.82;0.35;;;;;;;;;;5025583;28;20046;-83
2023/10/10 06:40:25;;;;;;;2.05;0.95;;;;;;;;;;5006302;28;20041;-83
2023/10/10 06:42:55;;;;;;;;;;;;;;;;;;5011608;28;20041;-80
2023/10/10 06:45:25;;;;;;;0.50;0.30;;;;;;;;;;5023886;28;19925;-82
2023/10/10 06:47:51;;;;;;;0.20;0.20;;;;;;;;;;5025849;28;20318;-82
2023/10/10 06:50:24;;;;;;;0.20;0.10;;;;;;;;;;5025455;28;20420;-81
2023/10/10 06:52:54;;;;;;;0.20;0.10;;;;;;;;;;5024649;28;20042;-82
2023/10/10 06:55:23;;;;;;;0.20;0.10;;;;;;;;;;5009161;28;20611;-82
2023/10/10 06:57:59;;;;;;;0.25;0.20;;;;;;;;;;5025609;28;20081;-83
2023/10/10 07:00:29;;;;;;;0.38;0.20;;;;;;;;;;5019660;28;20129;-83
2023/10/10 07:02:56;;;;;;;0.50;0.43;;;;;;;;;;5004797;28;20037;-82
2023/10/10 07:05:26;;;;;;;4.13;0.93;;;;;;;;;;5027841;28;20048;-82
2023/10/10 07:07:53;;;;;;;0.55;0.32;;;;;;;;;;5027002;28;20068;-81
2023/10/10 07:10:26;;;;;;;0.85;0.85;;;;;;;;;;5026773;28;20046;-82
2023/10/10 07:12:58;;;;;;;0.20;0.10;;;;;;;;;;5012005;28;20733;-80
2023/10/10 07:15:25;;;;;;;0.20;0.10;;;;;;;;;;5010816;28;20045;-82
2023/10/10 07:18:04;;;;;;;0.60;0.30;;;;;;;;;;5011128;28;20038;-80
2023/10/10 07:23:16;;;;;;;0.30;0.10;;;;;;;;;;5027475;28;20045;-82
2023/10/10 07:25:57;;;;;;;0.20;0.10;;;;;;;;;;5010496;28;20041;-82
2023/10/10 07:28:26;;;;;;;0.20;0.10;;;;;;;;;;5028602;28;20040;-82
2023/10/10 07:30:52;;;;;;;0.73;0.63;;;;;;;;;;5030907;28;20048;-83
2023/10/10 07:33:22;;;;;;;0.30;0.20;;;;;;;;;;5006058;28;20509;-82
2023/10/10 07:35:53;;;;;;;0.20;0.17;;;;;;;;;;5009752;28;20219;-83
2023/10/10 07:38:30;;;;;;;0.90;0.47;;;;;;;;;;5013013;28;20045;-83
2023/10/10 07:40:56;;;;;;;0.20;0.10;;;;;;;;;;5012602;28;20036;-82
2023/10/10 07:43:26;;;;;;;0.20;0.10;;;;;;;;;;5011016;28;20079;-82
2023/10/10 07:45:54;;;;;;;0.43;0.43;;;;;;;;;;5014822;28;20494;-81
2023/10/10 07:50:56;;;;;;;0.57;0.57;;;;;;;;;;5032047;28;20049;-81
2023/10/10 07:53:22;;;;;;;;;;;;;;;;;;5016677;28;20045;-81
2023/10/10 07:55:52;;;;;;;0.60;0.60;;;;;;;;;;5028204;28;19925;-82
2023/10/10 07:58:23;;;;;;;0.28;0.28;;;;;;;;;;5014742;28;20041;-81
2023/10/10 08:00:49;;;;;;;0.57;0.57;;;;;;;;;;5031666;28;20406;-81
2023/10/10 08:03:21;;;;;;;0.60;0.50;;;;;;;;;;5016657;28;20033;-83
2023/10/10 08:05:48;;;;;;;0.85;0.85;;;;;;;;;;5029901;28;20425;-82
2023/10/10 08:08:17;;;;;;;0.28;0.20;;;;;;;;;;5028906;28;20030;-81
2023/10/10 08:10:49;;;;;;;0.40;0.40;;;;;;;;;;5025248;28;20143;-83
2023/10/10 08:13:15;;;;;;;0.20;0.20;;;;;;;;;;5040982;28;20116;-82
2023/10/10 08:15:56;;;;;;;0.35;0.22;;;;;;;;;;5050230;28;20041;-80
2023/10/10 08:21:14;;;;;;;0.40;0.28;;;;;;;;;;5032014;28;20033;-81
2023/10/10 08:23:45;;;;;;;0.60;0.52;;;;;;;;;;5044699;28;20091;-81
2023/10/10 08:26:17;;;;;;;0.52;0.52;;;;;;;;;;5010831;28;20038;-81
2023/10/10 08:28:47;;;;;;;0.40;0.40;;;;;;;;;;5032171;28;20049;-81
2023/10/10 08:31:14;;;;;;;0.45;0.40;;;;;;;;;;5015338;28;20161;-80
2023/10/10 08:33:46;;;;;;;1.00;0.80;;;;;;;;;;5012445;28;20053;-82
2023/10/10 08:36:23;;;;;;;0.90;0.43;;;;;;;;;;5034460;28;20072;-83
2023/10/10 08:38:49;;;;;;;0.90;0.82;;;;;;;;;;5016910;28;20072;-80
2023/10/10 08:41:19;;;;;;;4.68;1.17;;;;;;;;;;5013279;28;20037;-81
2023/10/10 08:43:47;;;;;;;2.88;1.00;;;;;;;;;;5016559;28;20432;-83
2023/10/10 08:46:14;;;;;;;0.20;0.10;;;;;;;;;;5011113;28;20065;-84
2023/10/10 08:48:42;;;;;;;0.70;0.70;;;;;;;;;;5026270;28;20666;-83
2023/10/10 08:51:08;;;;;;;0.43;0.43;;;;;;;;;;5011157;28;20037;-84
2023/10/10 08:53:38;;;;;;;0.60;0.60;;;;;;;;;;5028061;28;20071;-84
2023/10/10 08:56:04;;;;;;;0.20;0.10;;;;;;;;;;5028106;28;20045;-83
2023/10/10 08:58:31;;;;;;;0.60;0.35;;;;;;;;;;5028010;28;20045;-83
2023/10/10 09:01:01;;;;;;;1.15;1.15;;;;;;;;;;5013484;28;20155;-82
2023/10/10 09:03:28;;;;;;;0.25;0.25;;;;;;;;;;5013228;28;20072;-83
2023/10/10 09:05:55;;;;;;;0.77;0.77;;;;;;;;;;5014656;28;20452;-81
2023/10/10 09:08:27;;;;;;;0.55;0.55;;;;;;;;;;5017245;28;20037;-84
2023/10/10 09:10:58;;;;;;;0.20;0.20;;;;;;;;;;5011833;28;20041;-84
2023/10/10 09:13:25;;;;;;;0.25;0.22;;;;;;;;;;5009678;28;20093;-83
2023/10/10 09:15:55;;;;;;;0.73;0.73;;;;;;;;;;5032148;28;20038;-83
2023/10/10 09:18:22;;;;;;;0.55;0.55;;;;;;;;;;5025448;28;20060;-82
2023/10/10 09:20:49;;;;;;;1.65;1.20;;;;;;;;;;5028029;28;20513;-85
2023/10/10 09:23:25;;;;;;;0.55;0.52;;;;;;;;;;5026067;28;20037;-83
2023/10/10 09:26:09;;;;;;;1.63;1.02;;;;;;;;;;5014896;28;20033;-83
2023/10/10 09:29:03;;;;;;;0.82;0.50;;;;;;;;;;5016391;28;20084;-83
2023/10/10 09:31:33;;;;;;;0.40;0.40;;;;;;;;;;5028069;28;20074;-84
2023/10/10 09:34:03;;;;;;;0.40;0.40;;;;;;;;;;5010944;28;20045;-84
2023/10/10 09:36:37;;;;;;;0.20;0.20;;;;;;;;;;5026302;28;20099;-82
2023/10/10 09:39:25;;;;;;;1.10;0.73;;;;;;;;;;5011136;28;20052;-82
2023/10/10 09:50:29;;;;;;;0.57;0.52;;;;;;;;;;5025698;28;20445;-81
2023/10/10 09:57:54;;;;;;;1.02;0.98;;;;;;;;;;5027266;28;20053;-82
2023/10/10 10:00:30;;;;;;;0.33;0.33;;;;;;;;;;5012814;28;20072;-84
2023/10/10 10:02:59;;;;;;;0.20;0.20;;;;;;;;;;5025265;28;20069;-82
2023/10/10 10:05:28;;;;;;;0.45;0.45;;;;;;;;;;5011228;28;20053;-83
2023/10/10 10:08:06;;;;;;;1.25;1.23;;;;;;;;;;5011912;28;20230;-81
2023/10/10 10:10:39;;;;;;;1.65;1.42;;;;;;;;;;5012827;28;20038;-82
2023/10/10 10:13:28;;;;;;;0.73;0.73;;;;;;;;;;5010436;28;20025;-83
2023/10/10 10:16:08;;;;;;;1.17;1.10;;;;;;;;;;5022662;28;20493;-83
2023/10/10 10:18:46;;;;;;;1.85;0.57;;;;;;;;;;5027154;28;20037;-81
2023/10/10 10:21:27;;;;;;;1.67;1.58;;;;;;;;;;5012424;28;20049;-83
2023/10/10 10:24:14;;;;;;;0.73;0.70;;;;;;;;;;5040068;28;20041;-83
2023/10/10 10:26:44;;;;;;;1.13;1.05;;;;;;;;;;5026927;28;20080;-83
2023/10/10 10:29:36;;;;;;;1.40;0.88;;;;;;;;;;5010525;28;20045;-84
2023/10/10 10:32:07;;;;;;;0.47;0.47;;;;;;;;;;5008397;28;20432;-83
2023/10/10 10:34:45;;;;;;;0.20;0.20;;;;;;;;;;5025693;28;20119;-82
2023/10/10 10:37:20;;;;;;;0.65;0.65;;;;;;;;;;5011544;28;20044;-82
2023/10/10 10:42:34;;;;;;;0.60;0.60;;;;;;;;;;5026171;28;20049;-85
2023/10/10 10:45:23;;;;;;;0.93;0.35;;;;;;;;;;5010090;28;20038;-83
2023/10/10 10:47:54;;;;;;;0.50;0.50;;;;;;;;;;5026636;28;20517;-83
2023/10/10 10:50:29;;;;;;;0.43;0.43;;;;;;;;;;5029081;28;20288;-83
2023/10/10 10:53:20;;;;;;;1.60;0.98;;;;;;;;;;5007485;28;20043;-82
2023/10/10 10:59:23;;;;;;;0.20;0.10;;;;;;;;;;5044508;28;20041;-83
2023/10/10 11:01:27;;;;;;;1.25;0.85;;;;;;;;;;5016081;28;20512;-82
2023/10/10 11:06:24;;;;;;;0.20;0.20;;;;;;;;;;5007053;28;20052;-81
2023/10/10 11:11:24;;;;;;;2.47;2.28;;;;;;;;;;5021170;28;20037;-81
2023/10/10 11:14:00;;;;;;;0.55;0.55;;;;;;;;;;5006727;28;20030;-84
2023/10/10 11:16:39;;;;;;;0.50;0.40;;;;;;;;;;5001386;28;20048;-78
2023/10/10 11:19:24;;;;;;;0.57;0.35;;;;;;;;;;5001867;28;20046;-80
2023/10/10 11:21:53;;;;;;;0.20;0.10;;;;;;;;;;5007173;28;20125;-80
2023/10/10 11:24:24;;;;;;;0.45;0.45;;;;;;;;;;5001545;28;20524;-81
2023/10/10 11:27:43;;;;;;;0.55;0.55;;;;;;;;;;5006036;28;20038;-80
2023/10/10 11:29:48;;;;;;;0.30;0.30;;;;;;;;;;4999287;28;20497;-82
2023/10/10 11:32:24;;;;;;;0.45;0.45;;;;;;;;;;5020951;28;20038;-84
2023/10/10 11:34:51;;;;;;;0.30;0.28;;;;;;;;;;5004933;28;20046;-80
2023/10/10 11:37:23;;;;;;;1.05;0.32;;;;;;;;;;4988278;28;20061;-81
2023/10/10 11:39:58;;;;;;;0.20;0.10;;;;;;;;;;4990777;28;20370;-81
2023/10/10 11:42:33;;;;;;;0.85;0.85;;;;;;;;;;4995231;28;20042;-80
2023/10/10 11:45:06;;;;;;;0.30;0.30;;;;;;;;;;5008633;28;20044;-81
2023/10/10 11:47:42;;;;;;;0.47;0.40;;;;;;;;;;4992256;28;20048;-80
2023/10/10 11:50:17;;;;;;;0.82;0.52;;;;;;;;;;5009971;28;20050;-79
2023/10/10 11:52:53;;;;;;;0.90;0.90;;;;;;;;;;5010487;28;20038;-79
2023/10/10 11:55:23;;;;;;;1.35;1.25;;;;;;;;;;4991966;28;20084;-79
2023/10/10 11:57:50;;;;;;;0.70;0.70;;;;;;;;;;5010215;28;20042;-79
2023/10/10 12:00:22;;;;;;;0.43;0.43;;;;;;;;;;5009207;28;20050;-80
2023/10/10 12:02:48;;;;;;;;;;;;;;;;;;5007973;28;20077;-80
2023/10/10 12:08:05;;;;;;;0.22;0.15;;;;;;;;;;5009891;28;20050;-81
2023/10/10 12:10:52;;;;;;;0.25;0.20;;;;;;;;;;4987030;28;20571;-80
2023/10/10 12:15:57;;;;;;;2.40;1.65;;;;;;;;;;5007531;28;20087;-80
2023/10/10 12:18:32;;;;;;;0.20;0.20;;;;;;;;;;5009223;28;20038;-79
2023/10/10 12:21:08;;;;;;;0.35;0.30;;;;;;;;;;5009497;28;20125;-78
2023/10/10 12:23:34;;;;;;;1.80;0.55;;;;;;;;;;5009074;28;20124;-80
2023/10/10 12:26:00;;;;;;;0.22;0.20;;;;;;;;;;5004393;28;20092;-81
2023/10/10 12:28:27;;;;;;;1.23;0.68;;;;;;;;;;5006161;28;20034;-82
2023/10/10 12:30:56;;;;;;;0.63;0.20;;;;;;;;;;4990470;28;20038;-83
2023/10/10 12:33:26;;;;;;;0.40;0.40;;;;;;;;;;5008140;28;20319;-80
2023/10/10 12:35:52;;;;;;;0.35;0.35;;;;;;;;;;5006776;28;20205;-79
2023/10/10 12:38:21;;;;;;;0.30;0.30;;;;;;;;;;5008830;28;20293;-81
2023/10/10 12:40:51;;;;;;;1.20;0.43;;;;;;;;;;5007883;28;20042;-81
2023/10/10 12:43:17;;;;;;;0.60;0.60;;;;;;;;;;5007983;28;20033;-79
2023/10/10 12:45:45;;;;;;;0.22;0.22;;;;;;;;;;4993130;28;20589;-81
2023/10/10 12:48:20;;;;;;;0.52;0.52;;;;;;;;;;5009034;28;20117;-82
2023/10/10 12:50:46;;;;;;;1.55;0.55;;;;;;;;;;4994370;28;20073;-80
2023/10/10 12:53:15;;;;;;;0.50;0.50;;;;;;;;;;5009361;28;20092;-81
2023/10/10 12:55:52;;;;;;;0.52;0.22;;;;;;;;;;5008510;28;20070;-80
2023/10/10 12:58:22;;;;;;;0.20;0.20;;;;;;;;;;4994167;28;20353;-81
2023/10/10 13:00:51;;;;;;;0.20;0.20;;;;;;;;;;4990492;28;20050;-80
2023/10/10 13:03:27;;;;;;;0.65;0.20;;;;;;;;;;5010478;28;20045;-80
2023/10/10 13:06:00;;;;;;;1.05;0.50;;;;;;;;;;5012089;28;20042;-81
2023/10/10 13:08:46;;;;;;;1.27;0.50;;;;;;;;;;4994272;28;20042;-81
2023/10/10 13:11:17;;;;;;;0.40;0.40;;;;;;;;;;5007126;28;20046;-82
2023/10/10 13:13:49;;;;;;;0.30;0.30;;;;;;;;;;5012466;28;20037;-82
2023/10/10 13:18:59;;;;;;;0.70;0.63;;;;;;;;;;5020363;28;20069;-81
2023/10/10 13:21:26;;;;;;;0.75;0.75;;;;;;;;;;5020992;28;20045;-81
2023/10/10 13:23:53;;;;;;;0.20;0.20;;;;;;;;;;5028048;28;20033;-81
2023/10/10 13:26:23;;;;;;;0.63;0.52;;;;;;;;;;5029117;28;20041;-82
2023/10/10 13:28:49;;;;;;;0.20;0.10;;;;;;;;;;5025223;28;20133;-81
2023/10/10 13:31:16;;;;;;;0.30;0.30;;;;;;;;;;5012992;28;20093;-81
2023/10/10 13:33:43;;;;;;;0.47;0.47;;;;;;;;;;5026167;28;20045;-79
2023/10/10 13:36:12;;;;;;;0.20;0.10;;;;;;;;;;5023636;28;20155;-80
2023/10/10 13:38:53;;;;;;;0.60;0.60;;;;;;;;;;4997075;28;20041;-79
2023/10/10 13:41:22;;;;;;;0.52;0.50;;;;;;;;;;4993308;28;20037;-81
2023/10/10 13:43:50;;;;;;;0.22;0.22;;;;;;;;;;5015168;28;20104;-79
2023/10/10 13:46:20;;;;;;;0.90;0.80;;;;;;;;;;4996959;28;20045;-80
2023/10/10 13:48:47;;;;;;;0.50;0.38;;;;;;;;;;4997453;28;20590;-81
2023/10/10 13:51:15;;;;;;;0.57;0.30;;;;;;;;;;5014059;28;20034;-80
2023/10/10 13:53:43;;;;;;;1.20;0.77;;;;;;;;;;4991320;28;20038;-81
2023/10/10 13:56:10;;;;;;;0.43;0.40;;;;;;;;;;5009859;28;20510;-81
2023/10/10 13:58:37;;;;;;;0.40;0.40;;;;;;;;;;5008396;28;20044;-79
2023/10/10 14:01:26;;;;;;;0.40;0.30;;;;;;;;;;5019854;28;20046;-80
2023/10/10 14:04:00;;;;;;;0.28;0.28;;;;;;;;;;5020190;28;20042;-81
2023/10/10 14:06:28;;;;;;;0.35;0.32;;;;;;;;;;5005529;28;20038;-83
2023/10/10 14:08:54;;;;;;;0.22;0.13;;;;;;;;;;4994857;28;20062;-81
2023/10/10 14:11:20;;;;;;;0.40;0.40;;;;;;;;;;5015773;28;20040;-82
2023/10/10 14:13:50;;;;;;;0.25;0.20;;;;;;;;;;5010978;28;20125;-81
2023/10/10 14:16:17;;;;;;;0.38;0.38;;;;;;;;;;5011194;28;20038;-82
2023/10/10 14:18:45;;;;;;;0.20;0.20;;;;;;;;;;5011115;28;20045;-81
2023/10/10 14:21:12;;;;;;;0.75;0.68;;;;;;;;;;5008489;28;20049;-80
2023/10/10 14:23:41;;;;;;;0.20;0.10;;;;;;;;;;4995003;28;20049;-81
2023/10/10 14:26:16;;;;;;;4.28;0.43;;;;;;;;;;4993326;28;20052;-84
2023/10/10 14:28:52;;;;;;;0.63;0.57;;;;;;;;;;5010190;28;20038;-81
2023/10/10 14:31:27;;;;;;;0.55;0.55;;;;;;;;;;5012259;28;20061;-81
2023/10/10 14:33:54;;;;;;;0.73;0.40;;;;;;;;;;5008986;28;20124;-81
2023/10/10 14:36:20;;;;;;;0.20;0.20;;;;;;;;;;5005974;28;20115;-79
2023/10/10 14:38:49;;;;;;;0.20;0.20;;;;;;;;;;5007167;28;20161;-80
2023/10/10 14:41:17;;;;;;;0.47;0.45;;;;;;;;;;5005646;28;20077;-81
2023/10/10 14:43:47;;;;;;;0.30;0.30;;;;;;;;;;5005722;28;20144;-80
2023/10/10 14:46:31;;;;;;;0.40;0.40;;;;;;;;;;5006224;28;20049;-81
2023/10/10 14:49:06;;;;;;;0.45;0.45;;;;;;;;;;5009130;28;20065;-80
2023/10/10 14:51:36;;;;;;;0.68;0.63;;;;;;;;;;5001805;28;20510;-81
2023/10/10 14:54:12;;;;;;;0.95;0.95;;;;;;;;;;5007333;28;20414;-80
2023/10/10 14:56:39;;;;;;;1.02;0.60;;;;;;;;;;4990485;28;20517;-80
2023/10/10 14:59:06;;;;;;;0.25;0.20;;;;;;;;;;5006617;28;20041;-81
2023/10/10 15:01:36;;;;;;;0.70;0.50;;;;;;;;;;5016944;28;20046;-79
2023/10/10 15:04:05;;;;;;;0.20;0.10;;;;;;;;;;4985577;28;20042;-81
2023/10/10 15:06:35;;;;;;;1.67;1.38;;;;;;;;;;5001256;28;20137;-80
2023/10/10 15:09:01;;;;;;;0.57;0.45;;;;;;;;;;5003982;28;20096;-82
2023/10/10 15:11:28;;;;;;;0.77;0.45;;;;;;;;;;4987539;28;20049;-80
2023/10/10 15:13:55;;;;;;;0.35;0.35;;;;;;;;;;5009070;28;20046;-81
2023/10/10 15:16:23;;;;;;;0.75;0.52;;;;;;;;;;5012896;28;20055;-81
2023/10/10 15:18:51;;;;;;;1.10;1.05;;;;;;;;;;5016627;28;20052;-81
2023/10/10 15:21:18;;;;;;;0.88;0.85;;;;;;;;;;5001108;28;20057;-81
2023/10/10 15:23:46;;;;;;;0.28;0.22;;;;;;;;;;5014124;28;20099;-80
2023/10/10 15:26:17;;;;;;;0.20;0.20;;;;;;;;;;5013085;28;20110;-78
2023/10/10 15:28:43;;;;;;;0.35;0.28;;;;;;;;;;5015774;28;20045;-80
2023/10/10 15:31:10;;;;;;;0.57;0.57;;;;;;;;;;5015718;28;20034;-80
2023/10/10 15:33:36;;;;;;;0.75;0.40;;;;;;;;;;5012042;28;20156;-80
2023/10/10 15:36:06;;;;;;;0.20;0.10;;;;;;;;;;5010162;28;20084;-80
2023/10/10 15:38:32;;;;;;;0.25;0.20;;;;;;;;;;4996521;28;20040;-80
2023/10/10 15:41:05;;;;;;;0.57;0.57;;;;;;;;;;5011122;28;20486;-81
2023/10/10 15:43:31;;;;;;;1.65;0.75;;;;;;;;;;5012849;28;20540;-80
2023/10/10 15:45:58;;;;;;;0.43;0.43;;;;;;;;;;5011213;28;20037;-81
2023/10/10 15:48:25;;;;;;;0.40;0.35;;;;;;;;;;5014974;28;20049;-80
2023/10/10 15:50:57;;;;;;;0.28;0.28;;;;;;;;;;5031941;28;20725;-80
2023/10/10 15:53:27;;;;;;;1.20;0.70;;;;;;;;;;5015851;28;20049;-80
2023/10/10 15:56:11;;;;;;;0.30;0.28;;;;;;;;;;5017100;28;20025;-80
2023/10/10 15:58:57;;;;;;;0.20;0.10;;;;;;;;;;5011261;28;20069;-79
2023/10/10 16:01:28;;;;;;;0.38;0.38;;;;;;;;;;5009628;28;20038;-81
2023/10/10 16:04:05;;;;;;;0.20;0.10;;;;;;;;;;5016226;28;20766;-79
2023/10/10 16:06:33;;;;;;;1.10;1.00;;;;;;;;;;5007414;28;20034;-81
2023/10/10 16:09:03;;;;;;;0.52;0.52;;;;;;;;;;5014910;28;20061;-80
2023/10/10 16:11:32;;;;;;;0.20;0.20;;;;;;;;;;5012622;28;20160;-80
2023/10/10 16:13:59;;;;;;;0.43;0.43;;;;;;;;;;5012118;28;20505;-81
2023/10/10 16:16:25;;;;;;;0.98;0.98;;;;;;;;;;5009717;28;20102;-81
2023/10/10 16:18:51;;;;;;;1.10;0.75;;;;;;;;;;4990557;28;20037;-81
2023/10/10 16:21:18;;;;;;;0.40;0.40;;;;;;;;;;5014666;28;20140;-82
2023/10/10 16:23:44;;;;;;;0.50;0.50;;;;;;;;;;5013478;28;20069;-81
2023/10/10 16:26:14;;;;;;;0.20;0.13;;;;;;;;;;5013317;28;20049;-81
2023/10/10 16:28:41;;;;;;;0.35;0.13;;;;;;;;;;4996883;28;21008;-81
2023/10/10 16:31:08;;;;;;;0.35;0.35;;;;;;;;;;5011918;28;20064;-79
2023/10/10 16:33:38;;;;;;;0.65;0.65;;;;;;;;;;5012733;28;20038;-81
2023/10/10 16:36:19;;;;;;;3.30;1.27;;;;;;;;;;5009757;28;20037;-80
2023/10/10 16:38:49;;;;;;;0.50;0.50;;;;;;;;;;5012160;28;20417;-81
2023/10/10 16:41:16;;;;;;;0.20;0.15;;;;;;;;;;4993676;28;20056;-81
2023/10/10 16:43:42;;;;;;;0.43;0.40;;;;;;;;;;5010528;28;20083;-81
2023/10/10 16:46:09;;;;;;;0.82;0.28;;;;;;;;;;5004951;28;20121;-80
2023/10/10 16:48:38;;;;;;;0.55;0.55;;;;;;;;;;5010961;28;20503;-81
2023/10/10 16:51:12;;;;;;;0.52;0.35;;;;;;;;;;5012130;28;20383;-81
2023/10/10 16:53:43;;;;;;;0.20;0.17;;;;;;;;;;5010353;28;20600;-81
2023/10/10 16:56:09;;;;;;;0.60;0.60;;;;;;;;;;5007696;28;20256;-81
2023/10/10 16:58:39;;;;;;;0.43;0.30;;;;;;;;;;4992363;28;20041;-80
2023/10/10 17:01:05;;;;;;;0.30;0.20;;;;;;;;;;5010284;28;20034;-81
2023/10/10 17:03:32;;;;;;;0.52;0.52;;;;;;;;;;5012149;28;20042;-82
2023/10/10 17:05:59;;;;;;;0.20;0.20;;;;;;;;;;5002482;23;20477;-82
2023/10/10 17:08:32;;;;;;;0.20;0.20;;;;;;;;;;4989533;28;20034;-81
2023/10/10 17:11:16;;;;;;;0.43;0.43;;;;;;;;;;4964276;28;20038;-81
2023/10/10 17:13:42;;;;;;;0.32;0.32;;;;;;;;;;4991581;28;20061;-80
2023/10/10 17:16:28;;;;;;;0.52;0.52;;;;;;;;;;4984742;28;20117;-81
2023/10/10 17:18:57;;;;;;;0.68;0.68;;;;;;;;;;4972651;28;20038;-83
2023/10/10 17:21:30;;;;;;;0.70;0.70;;;;;;;;;;4984914;28;20042;-82
2023/10/10 17:23:59;;;;;;;0.20;0.20;;;;;;;;;;4978016;28;20121;-82
2023/10/10 17:26:30;;;;;;;0.20;0.20;;;;;;;;;;4972529;28;20049;-81
2023/10/10 17:28:59;;;;;;;0.20;0.08;;;;;;;;;;4989109;28;20038;-83
2023/10/10 17:31:40;;;;;;;3.65;0.65;;;;;;;;;;4985306;28;20054;-81
2023/10/10 17:34:06;;;;;;;0.85;0.30;;;;;;;;;;4972821;28;20041;-83
2023/10/10 17:36:57;;;;;;;4.05;0.85;;;;;;;;;;4971586;28;20078;-82
2023/10/10 17:39:23;;;;;;;0.20;0.20;;;;;;;;;;4970576;28;20038;-80
2023/10/10 17:41:53;;;;;;;1.15;0.65;;;;;;;;;;4984898;28;20050;-82